الصفحة الرئيسية
METAR-TAF:

METAR-TAF

مطار :

Marigot, دومينيكا

دائرة عرض: 15-32N, خط طول: 061-18W, ارتفاع: 13 متر

مراقبة الطقس الحالي

تاريخ ووقت الإصدار 45 دقيقة قبل الساعة 14:00UTC
ريح 7 عقدة من الشرق/الجنوب الشرقي
درجة الحرارة 28°درجة مئوية
الرطوبة 79%
ضغط 1016 hPa
الرؤية 10 كم أو أكثر
غيوم مفككة على ارتفاع 1800 قدم

METAR: TDPD 251400Z 12007KT 9999 BKN018 28/24 Q1016

زمن: 10:45 (14:45 UTC)

توقعات

تاريخ ووقت الإصدار 3ساعات و 45 دقيقة قبل الساعة 11:00UTC
التوقعات صالحة من25 الساعة 12 UTC إلى 26 الساعة 12 UTC
ريح 10 عقدة من الشرق/الجنوب الشرقي
الرؤية 10 كم أو أكثر
غيوم متفرقة على ارتفاع 1800 قدم

TAF: TDPD 251100Z 2512/2612 11010KT 9999 SCT018

أرصاد الطقس والتوقعات من أكثر من 4000 مطار (تقارير الطقس للمطار METAR والتنبؤ بالطقس بالمطارTAF).

المحطات المتاحة هي النقط الصفراء والحمراء على الخريطة.

حرك المؤشر فوق النقطة لمعرفة اسم المحطة.

ثم انقر لمعرفة أرصاد وتوقعات الطقس.

لتغيير الخارطة: اضغط على الأزرار الخضراء مع رمز الصليب الأسود للتكبير. على الزر الأخضر مع شرطة للتصغير، أو على الأسهم الخضراء للخرائط المجاورة.


METAR-TAF: